Time;durP1;ratioP1;P1;durP2;ratioP2;P2;SDS_P1;SDS_P2;PMS_P1;PMS_P2;Temp;Humidity;BMP_temperature;BMP_pressure;BME280_temperature;BME280_humidity;BME280_pressure;Samples;Min_cycle;Max_cycle;Signal;HPM_P1;HPM_P2
2022/03/26 00:00:00;;;;;;;48.47;21.70;;;;;;;9.53;42.76;97414.97;5002613;28;20510;-64
2022/03/26 00:02:28;;;;;;;44.53;19.95;;;;;;;9.49;42.54;97430.44;4997394;28;20129;-65
2022/03/26 00:04:53;;;;;;;43.97;21.20;;;;;;;9.48;42.77;97426.13;5001376;28;20045;-64
2022/03/26 00:07:19;;;;;;;45.50;21.80;;;;;;;9.47;42.78;97422.59;4994089;28;20045;-65
2022/03/26 00:09:44;;;;;;;43.40;20.20;;;;;;;9.40;42.73;97419.63;5002340;28;20549;-65
2022/03/26 00:12:09;;;;;;;46.83;21.58;;;;;;;9.46;42.81;97422.94;4996070;28;20042;-65
2022/03/26 00:14:35;;;;;;;47.92;19.10;;;;;;;9.32;43.25;97421.31;5002463;28;20038;-64
2022/03/26 00:17:00;;;;;;;47.10;20.08;;;;;;;9.25;43.15;97415.63;5003419;28;20096;-65
2022/03/26 00:19:27;;;;;;;44.72;20.83;;;;;;;9.18;43.76;97424.41;5004831;28;20136;-65
2022/03/26 00:21:52;;;;;;;43.40;21.05;;;;;;;9.10;43.95;97408.88;5013902;28;20729;-65
2022/03/26 00:24:18;;;;;;;45.28;21.42;;;;;;;9.04;43.75;97412.97;4995411;28;20037;-65
2022/03/26 00:26:43;;;;;;;45.90;21.02;;;;;;;8.96;44.45;97411.94;5000358;28;20037;-65
2022/03/26 00:29:09;;;;;;;50.65;22.85;;;;;;;8.92;44.89;97419.22;4997112;28;20044;-65
2022/03/26 00:31:37;;;;;;;42.55;20.95;;;;;;;8.93;44.50;97426.28;5001541;28;20048;-66
2022/03/26 00:34:05;;;;;;;45.50;20.50;;;;;;;8.86;44.34;97420.56;4999939;28;20125;-64
2022/03/26 00:36:31;;;;;;;50.70;21.85;;;;;;;8.70;45.39;97417.69;5000817;28;20191;-65
2022/03/26 00:38:57;;;;;;;42.97;21.00;;;;;;;8.74;45.03;97426.00;4998705;28;20043;-64
2022/03/26 00:41:25;;;;;;;43.33;22.35;;;;;;;8.71;44.95;97419.25;4996159;28;20111;-64
2022/03/26 00:43:51;;;;;;;44.55;20.38;;;;;;;8.67;45.21;97423.00;5000854;28;20042;-63
2022/03/26 00:46:17;;;;;;;43.28;21.92;;;;;;;8.71;44.59;97415.72;4996138;28;20038;-64
2022/03/26 00:48:43;;;;;;;46.30;20.88;;;;;;;8.67;45.60;97420.28;4996840;28;20092;-64
2022/03/26 00:51:08;;;;;;;50.78;21.92;;;;;;;8.68;45.02;97409.03;4996895;28;20507;-64
2022/03/26 00:53:33;;;;;;;46.30;20.75;;;;;;;8.64;45.33;97420.94;5004404;28;20052;-63
2022/03/26 00:55:59;;;;;;;46.97;21.55;;;;;;;8.65;45.57;97414.38;5004098;28;20049;-65
2022/03/26 00:58:25;;;;;;;42.72;20.98;;;;;;;8.67;45.07;97412.88;4996808;28;20042;-65
2022/03/26 01:00:50;;;;;;;46.55;21.13;;;;;;;8.60;45.88;97407.97;5015676;28;20124;-65
2022/03/26 01:03:18;;;;;;;45.90;21.25;;;;;;;8.49;45.75;97406.00;5034139;28;20164;-65
2022/03/26 01:05:43;;;;;;;48.50;21.92;;;;;;;8.44;45.92;97401.53;5016201;28;20246;-64
2022/03/26 01:08:09;;;;;;;42.63;19.85;;;;;;;8.50;45.99;97405.66;5014315;28;20037;-63
2022/03/26 01:10:34;;;;;;;47.80;20.52;;;;;;;8.53;45.65;97404.19;5013513;28;20104;-65
2022/03/26 01:13:00;;;;;;;43.22;20.63;;;;;;;8.45;46.18;97411.31;5014449;28;20146;-64
2022/03/26 01:15:26;;;;;;;43.13;19.63;;;;;;;8.44;45.66;97407.00;5014574;28;20040;-64
2022/03/26 01:17:52;;;;;;;43.75;20.33;;;;;;;8.34;46.31;97412.84;5013959;28;20103;-65
2022/03/26 01:20:18;;;;;;;43.45;20.42;;;;;;;8.32;46.52;97418.63;5013747;28;20030;-65
2022/03/26 01:22:44;;;;;;;44.72;21.75;;;;;;;8.32;46.83;97418.63;5014060;28;20041;-64
2022/03/26 01:25:11;;;;;;;43.75;21.63;;;;;;;8.22;47.00;97408.13;5013942;28;20114;-65
2022/03/26 01:27:37;;;;;;;45.03;20.65;;;;;;;8.22;46.63;97414.38;5013988;28;20495;-65
2022/03/26 01:30:04;;;;;;;41.35;20.75;;;;;;;8.13;47.17;97407.41;5013787;28;20084;-65
2022/03/26 01:32:30;;;;;;;50.20;21.10;;;;;;;8.07;47.75;97414.16;5013993;28;20069;-65
2022/03/26 01:34:56;;;;;;;44.65;21.50;;;;;;;8.02;47.47;97417.91;5013843;28;20457;-65
2022/03/26 01:37:23;;;;;;;43.05;21.13;;;;;;;8.05;47.81;97409.06;5013541;28;20152;-65
2022/03/26 01:39:49;;;;;;;44.15;20.73;;;;;;;8.09;48.08;97414.66;5013660;28;20030;-65
2022/03/26 01:42:14;;;;;;;44.08;20.98;;;;;;;7.96;47.97;97419.22;5014062;28;20479;-65
2022/03/26 01:44:39;;;;;;;44.67;19.90;;;;;;;7.87;48.84;97415.75;5013661;28;20030;-65
2022/03/26 01:47:05;;;;;;;43.63;21.25;;;;;;;7.89;48.43;97422.50;5013368;28;20561;-65
2022/03/26 01:49:31;;;;;;;51.72;22.95;;;;;;;7.90;48.59;97418.63;5018117;28;20029;-64
2022/03/26 01:51:59;;;;;;;49.05;21.23;;;;;;;7.73;48.42;97416.03;5032183;28;20041;-64
2022/03/26 01:54:26;;;;;;;51.95;22.55;;;;;;;7.88;48.33;97420.09;5014810;28;20029;-65
2022/03/26 01:56:51;;;;;;;41.35;19.75;;;;;;;7.79;49.06;97417.41;5013838;28;20041;-65
2022/03/26 01:59:16;;;;;;;51.60;22.30;;;;;;;7.84;48.15;97417.22;5013949;28;20034;-65
2022/03/26 02:01:42;;;;;;;47.88;20.67;;;;;;;7.82;48.60;97422.22;5013556;28;20104;-66
2022/03/26 02:04:09;;;;;;;46.78;22.65;;;;;;;7.79;48.85;97423.66;5013710;28;20063;-63
2022/03/26 02:06:37;;;;;;;47.60;21.42;;;;;;;7.62;49.88;97419.13;5012953;28;20463;-64
2022/03/26 02:09:11;;;;;;;48.40;22.55;;;;;;;7.58;49.76;97426.38;5013119;28;20030;-65
2022/03/26 02:11:39;;;;;;;47.20;20.92;;;;;;;7.53;50.45;97414.84;5013146;28;20030;-65
2022/03/26 02:14:07;;;;;;;42.75;20.80;;;;;;;7.47;50.49;97427.84;5013234;28;20140;-65
2022/03/26 02:16:33;;;;;;;52.97;23.15;;;;;;;7.54;49.81;97421.88;5012853;28;20034;-65
2022/03/26 02:18:59;;;;;;;47.83;22.27;;;;;;;7.43;50.67;97426.91;5013296;28;20068;-65
2022/03/26 02:21:24;;;;;;;51.58;22.50;;;;;;;7.38;50.94;97435.28;5012913;28;20042;-65
2022/03/26 02:23:51;;;;;;;50.88;21.33;;;;;;;7.39;50.95;97432.22;5013317;28;20088;-65
2022/03/26 02:26:26;;;;;;;49.33;22.75;;;;;;;7.33;51.07;97428.09;5012907;28;20030;-65
2022/03/26 02:28:55;;;;;;;48.30;22.10;;;;;;;7.38;50.82;97424.38;5012725;28;20030;-65
2022/03/26 02:31:21;;;;;;;;;;;;;;;7.45;50.55;97422.75;5013053;28;20065;-66
2022/03/26 02:33:47;;;;;;;50.38;20.98;;;;;;;7.40;50.70;97424.84;5012506;28;19974;-65
2022/03/26 02:36:13;;;;;;;54.05;22.88;;;;;;;7.34;50.59;97426.16;5012379;28;20033;-65
2022/03/26 02:38:38;;;;;;;50.88;23.58;;;;;;;7.22;51.16;97415.94;5012668;28;20034;-64
2022/03/26 02:41:05;;;;;;;52.70;22.17;;;;;;;7.12;52.38;97419.84;5012500;28;20088;-64
2022/03/26 02:43:30;;;;;;;50.05;24.00;;;;;;;7.19;52.00;97416.63;5012746;28;20044;-65
2022/03/26 02:45:56;;;;;;;50.28;23.20;;;;;;;7.03;52.86;97400.00;5012054;28;20479;-64
2022/03/26 02:48:22;;;;;;;52.25;23.60;;;;;;;7.05;51.95;97414.09;5012401;28;20480;-64
2022/03/26 02:50:47;;;;;;;52.33;23.67;;;;;;;7.10;52.85;97418.56;5012404;28;20096;-65
2022/03/26 02:53:13;;;;;;;52.60;23.45;;;;;;;7.06;52.30;97410.25;5012132;28;20470;-64
2022/03/26 02:55:39;;;;;;;57.08;23.98;;;;;;;7.01;52.64;97422.13;5010913;28;20026;-64
2022/03/26 02:58:07;;;;;;;49.53;23.40;;;;;;;6.98;52.66;97417.31;5012093;28;20103;-65
2022/03/26 03:00:37;;;;;;;50.30;22.33;;;;;;;6.87;52.90;97422.31;5012104;28;20462;-65
2022/03/26 03:03:03;;;;;;;44.60;22.00;;;;;;;6.88;52.92;97421.19;5012450;28;20083;-64
2022/03/26 03:05:30;;;;;;;55.03;24.52;;;;;;;6.75;54.00;97418.66;5011668;28;20038;-64
2022/03/26 03:07:56;;;;;;;48.50;23.15;;;;;;;6.80;53.66;97418.50;5011967;28;20517;-65
2022/03/26 03:10:22;;;;;;;46.47;22.17;;;;;;;6.70;54.07;97422.38;5011995;28;20033;-64
2022/03/26 03:12:48;;;;;;;52.88;23.88;;;;;;;6.68;54.22;97424.59;5011739;28;20640;-65
2022/03/26 03:15:17;;;;;;;53.40;24.00;;;;;;;6.61;54.38;97421.56;5012092;28;20036;-65
2022/03/26 03:17:44;;;;;;;49.42;22.90;;;;;;;6.65;54.15;97417.88;5012427;28;20033;-64
2022/03/26 03:20:10;;;;;;;56.25;24.20;;;;;;;6.67;54.17;97426.53;5012229;28;20041;-65
2022/03/26 03:22:37;;;;;;;50.08;22.15;;;;;;;6.68;54.25;97427.31;5012360;28;20038;-65
2022/03/26 03:25:03;;;;;;;54.33;23.48;;;;;;;6.51;55.14;97431.66;5011971;28;20037;-66
2022/03/26 03:27:29;;;;;;;53.42;23.30;;;;;;;6.62;54.81;97423.97;5011671;28;20049;-65
2022/03/26 03:29:54;;;;;;;47.65;22.48;;;;;;;6.51;55.11;97428.16;5011662;28;20034;-66
2022/03/26 03:32:20;;;;;;;54.80;23.92;;;;;;;6.46;55.75;97420.16;5011459;28;20045;-65
2022/03/26 03:34:45;;;;;;;52.00;22.83;;;;;;;6.40;55.90;97429.59;5012012;28;20045;-65
2022/03/26 03:37:11;;;;;;;52.80;24.25;;;;;;;6.39;55.95;97428.81;5011966;28;20026;-66
2022/03/26 03:39:36;;;;;;;45.67;22.23;;;;;;;6.35;55.85;97424.31;5014566;28;20033;-65
2022/03/26 03:42:03;;;;;;;50.63;22.58;;;;;;;6.31;56.57;97424.97;5025542;28;20034;-65
2022/03/26 03:44:28;;;;;;;57.90;25.00;;;;;;;6.40;55.72;97427.69;5024295;28;20034;-66
2022/03/26 03:46:53;;;;;;;53.60;23.33;;;;;;;6.38;55.90;97427.19;5025296;28;20085;-65
2022/03/26 03:49:19;;;;;;;54.38;23.75;;;;;;;6.39;55.76;97412.50;5022996;28;20032;-65
2022/03/26 03:51:45;;;;;;;51.55;24.17;;;;;;;6.45;55.74;97416.63;5023111;28;20033;-65
2022/03/26 03:54:11;;;;;;;57.13;23.35;;;;;;;6.38;56.36;97423.69;5019218;28;20033;-65
2022/03/26 03:56:36;;;;;;;55.17;22.85;;;;;;;6.34;56.55;97426.25;5013210;28;20048;-64
2022/03/26 03:59:02;;;;;;;58.33;23.75;;;;;;;6.30;56.38;97420.66;5012033;28;20026;-64
2022/03/26 04:01:28;;;;;;;54.25;23.90;;;;;;;6.24;56.98;97423.84;5009533;28;20030;-65
2022/03/26 04:03:53;;;;;;;52.25;23.42;;;;;;;6.37;56.68;97424.78;5017322;28;20033;-64
2022/03/26 04:06:19;;;;;;;56.75;22.55;;;;;;;6.29;56.71;97424.47;5028184;28;20053;-65
2022/03/26 04:08:44;;;;;;;52.08;23.95;;;;;;;6.32;56.27;97423.06;5013631;28;20038;-65
2022/03/26 04:11:10;;;;;;;53.58;24.80;;;;;;;6.36;56.28;97432.16;5016553;28;20030;-65
2022/03/26 04:13:35;;;;;;;52.50;23.15;;;;;;;6.38;56.39;97420.97;5015113;28;20030;-65
2022/03/26 04:16:01;;;;;;;55.60;24.08;;;;;;;6.35;56.13;97429.75;5009385;28;20085;-65
2022/03/26 04:18:26;;;;;;;51.55;24.17;;;;;;;6.27;56.62;97432.16;5008451;28;20069;-65
2022/03/26 04:20:56;;;;;;;50.22;21.85;;;;;;;6.24;56.96;97427.34;5010726;28;20155;-64
2022/03/26 04:23:22;;;;;;;55.83;23.67;;;;;;;6.27;56.57;97436.81;5011676;28;20030;-65
2022/03/26 04:25:48;;;;;;;44.85;20.98;;;;;;;6.32;56.67;97442.91;5010329;28;20040;-65
2022/03/26 04:28:14;;;;;;;49.50;22.45;;;;;;;6.26;56.98;97440.66;5009703;28;20037;-65
2022/03/26 04:30:40;;;;;;;57.17;24.00;;;;;;;6.24;56.84;97446.41;5011092;28;20069;-65
2022/03/26 04:33:06;;;;;;;52.88;23.25;;;;;;;6.23;56.59;97433.94;5008126;28;20030;-64
2022/03/26 04:35:31;;;;;;;49.90;24.35;;;;;;;6.16;57.30;97424.63;5010851;28;20185;-65
2022/03/26 04:37:57;;;;;;;51.35;23.05;;;;;;;6.08;57.27;97443.34;5009086;28;20128;-64
2022/03/26 04:40:23;;;;;;;56.33;23.70;;;;;;;6.05;58.14;97438.56;5010487;28;20026;-64
2022/03/26 04:42:49;;;;;;;53.05;24.77;;;;;;;6.11;57.22;97440.00;5008433;28;20056;-65
2022/03/26 04:45:15;;;;;;;54.75;23.08;;;;;;;5.94;58.34;97450.81;5011544;28;20657;-65
2022/03/26 04:47:40;;;;;;;54.50;24.60;;;;;;;5.85;59.09;97450.84;5007581;28;20026;-65
2022/03/26 04:50:07;;;;;;;50.22;24.33;;;;;;;6.01;58.21;97455.81;5011361;28;20033;-65
2022/03/26 04:52:32;;;;;;;53.50;23.90;;;;;;;6.00;57.96;97443.38;5027211;23;20042;-65
2022/03/26 04:54:58;;;;;;;55.58;24.83;;;;;;;5.99;58.04;97453.41;5011123;28;20509;-67
2022/03/26 04:57:23;;;;;;;49.28;24.25;;;;;;;5.97;58.50;97444.78;5009790;28;20041;-66
2022/03/26 04:59:49;;;;;;;53.00;23.20;;;;;;;5.94;58.55;97451.66;5031137;28;20045;-65
2022/03/26 05:02:14;;;;;;;57.78;23.55;;;;;;;5.95;58.59;97455.16;5023465;28;20085;-66
2022/03/26 05:04:40;;;;;;;52.08;24.35;;;;;;;5.94;58.52;97458.97;5011503;28;20034;-67
2022/03/26 05:09:50;;;;;;;53.03;23.50;;;;;;;5.79;59.08;97445.84;4992297;28;20038;-66
2022/03/26 05:12:17;;;;;;;51.05;23.25;;;;;;;5.77;59.03;97450.81;4991223;28;20034;-67
2022/03/26 05:14:42;;;;;;;53.60;23.48;;;;;;;5.67;59.72;97457.31;4991998;28;20081;-66
2022/03/26 05:17:08;;;;;;;52.28;24.55;;;;;;;5.69;59.90;97450.47;4990338;28;20041;-65
2022/03/26 05:19:33;;;;;;;54.70;23.73;;;;;;;5.58;60.26;97454.59;4991087;28;20054;-67
2022/03/26 05:21:58;;;;;;;51.88;23.90;;;;;;;5.67;59.89;97460.03;4989542;28;20038;-67
2022/03/26 05:24:24;;;;;;;57.80;24.35;;;;;;;5.70;59.78;97456.69;4991154;28;20538;-67
2022/03/26 05:26:50;;;;;;;56.40;24.98;;;;;;;5.76;59.87;97458.16;4988816;28;20077;-65
2022/03/26 05:29:15;;;;;;;53.53;23.92;;;;;;;5.72;60.02;97457.19;4990954;28;20042;-67
2022/03/26 05:31:41;;;;;;;54.78;24.33;;;;;;;5.77;59.49;97462.47;4989021;28;20056;-67
2022/03/26 05:34:06;;;;;;;50.70;22.20;;;;;;;5.90;59.25;97464.25;4989156;28;20070;-68
2022/03/26 05:36:32;;;;;;;48.05;21.48;;;;;;;6.01;58.99;97470.22;4990027;28;20030;-65
2022/03/26 05:38:57;;;;;;;55.88;22.92;;;;;;;6.21;58.11;97466.09;4994886;28;20030;-66
2022/03/26 05:41:23;;;;;;;54.42;21.63;;;;;;;6.24;58.49;97473.59;4993503;28;20509;-67
2022/03/26 05:43:50;;;;;;;50.28;23.90;;;;;;;6.74;56.08;97471.53;4994773;28;20060;-66
2022/03/26 05:46:15;;;;;;;48.47;22.63;;;;;;;6.98;55.22;97466.34;4994226;28;20030;-66
2022/03/26 05:48:41;;;;;;;53.30;22.23;;;;;;;7.05;55.36;97468.56;4991733;28;20069;-67
2022/03/26 05:51:06;;;;;;;47.17;20.45;;;;;;;6.99;54.94;97476.13;4992086;28;20598;-69
2022/03/26 05:53:32;;;;;;;47.83;22.70;;;;;;;6.80;55.86;97481.91;4995007;28;20402;-67
2022/03/26 05:55:58;;;;;;;50.55;23.63;;;;;;;6.72;55.93;97476.47;4994685;28;20038;-66
2022/03/26 05:58:23;;;;;;;47.50;21.52;;;;;;;6.98;54.92;97482.69;5012468;28;20041;-65
2022/03/26 06:00:49;;;;;;;54.47;23.08;;;;;;;7.16;54.55;97480.72;5013845;28;20034;-67
2022/03/26 06:03:17;;;;;;;58.40;24.02;;;;;;;6.86;56.11;97494.25;5008023;28;20057;-67
2022/03/26 06:05:42;;;;;;;53.47;23.02;;;;;;;6.80;56.11;97486.56;4994298;28;20419;-66
2022/03/26 06:08:08;;;;;;;47.50;22.40;;;;;;;6.87;55.93;97495.03;4991679;28;20037;-66
2022/03/26 06:10:34;;;;;;;54.15;22.75;;;;;;;6.94;55.71;97492.63;4994324;28;20553;-67
2022/03/26 06:13:00;;;;;;;52.10;24.08;;;;;;;6.97;55.63;97497.44;4994143;28;20034;-66
2022/03/26 06:15:25;;;;;;;56.28;22.23;;;;;;;7.65;53.81;97500.25;4991633;28;20778;-67
2022/03/26 06:17:51;;;;;;;57.22;23.45;;;;;;;7.28;53.64;97499.91;4990822;28;20057;-68
2022/03/26 06:20:16;;;;;;;53.38;23.63;;;;;;;7.21;54.88;97502.34;4993398;28;20038;-67
2022/03/26 06:22:42;;;;;;;49.53;23.65;;;;;;;7.36;54.45;97495.56;4993072;28;20034;-68
2022/03/26 06:25:07;;;;;;;46.45;22.38;;;;;;;7.39;54.61;97505.00;4994010;28;20835;-65
2022/03/26 06:27:33;;;;;;;59.92;25.05;;;;;;;7.40;54.73;97506.59;4992145;28;20026;-67
2022/03/26 06:29:58;;;;;;;63.20;24.52;;;;;;;7.55;54.29;97506.06;4993106;28;20061;-66
2022/03/26 06:32:24;;;;;;;57.17;23.55;;;;;;;8.04;52.61;97505.66;4991590;28;20419;-67
2022/03/26 06:34:50;;;;;;;53.35;24.40;;;;;;;8.16;52.05;97500.31;4992026;28;20455;-67
2022/03/26 06:37:16;;;;;;;48.63;22.98;;;;;;;8.13;52.15;97502.91;4993205;28;20112;-67
2022/03/26 06:39:41;;;;;;;52.15;24.08;;;;;;;8.11;52.62;97508.69;4993670;28;20498;-66
2022/03/26 06:42:07;;;;;;;50.67;23.23;;;;;;;8.15;52.67;97508.81;4993878;28;20049;-67
2022/03/26 06:44:32;;;;;;;52.15;23.73;;;;;;;8.02;53.00;97516.13;4993762;28;20041;-68
2022/03/26 06:46:58;;;;;;;53.53;23.38;;;;;;;8.21;52.83;97515.66;4992209;28;20034;-67
2022/03/26 06:49:23;;;;;;;49.60;24.42;;;;;;;8.61;51.47;97518.78;5004489;28;20042;-67
2022/03/26 06:51:49;;;;;;;49.53;23.30;;;;;;;8.41;51.68;97514.13;5003995;28;20041;-67
2022/03/26 06:54:15;;;;;;;48.20;23.73;;;;;;;8.42;51.84;97518.44;4999552;28;20037;-69
2022/03/26 06:56:40;;;;;;;52.97;23.45;;;;;;;8.90;51.50;97519.84;4993926;28;20034;-68
2022/03/26 06:59:06;;;;;;;45.22;21.65;;;;;;;8.73;51.29;97529.00;4997681;28;20026;-67
2022/03/26 07:01:31;;;;;;;57.15;23.85;;;;;;;8.87;50.91;97525.97;4993230;28;20375;-66
2022/03/26 07:03:58;;;;;;;51.20;22.48;;;;;;;9.15;50.50;97520.72;4988777;28;20034;-67
2022/03/26 07:06:24;;;;;;;51.40;24.73;;;;;;;9.12;50.09;97529.59;4991522;28;20121;-66
2022/03/26 07:08:49;;;;;;;50.75;24.85;;;;;;;9.33;49.80;97526.81;4993492;28;20614;-67
2022/03/26 07:11:16;;;;;;;46.28;23.33;;;;;;;9.53;49.08;97527.09;4993194;28;20104;-67
2022/03/26 07:13:41;;;;;;;50.08;24.70;;;;;;;9.77;49.38;97540.78;4993266;28;20483;-67
2022/03/26 07:16:07;;;;;;;52.83;24.48;;;;;;;9.32;50.20;97536.13;4989149;28;20041;-67
2022/03/26 07:18:32;;;;;;;49.63;23.48;;;;;;;9.36;49.35;97539.81;4990625;28;20101;-66
2022/03/26 07:21:00;;;;;;;57.40;26.20;;;;;;;9.30;50.01;97538.41;4991554;28;20066;-67
2022/03/26 07:23:25;;;;;;;47.38;23.33;;;;;;;9.29;49.91;97536.00;4993250;28;20080;-67
2022/03/26 07:25:51;;;;;;;52.70;23.85;;;;;;;9.26;49.48;97532.03;4989275;28;20483;-66
2022/03/26 07:28:16;;;;;;;48.13;22.63;;;;;;;9.48;50.15;97539.03;4992669;28;20072;-66
2022/03/26 07:30:42;;;;;;;52.33;25.30;;;;;;;9.60;48.91;97532.78;4992459;28;20040;-68
2022/03/26 07:33:08;;;;;;;50.85;24.23;;;;;;;10.14;47.87;97543.53;4990247;28;20038;-68
2022/03/26 07:35:33;;;;;;;50.90;22.80;;;;;;;9.45;49.00;97547.91;4992584;28;20526;-68
2022/03/26 07:37:59;;;;;;;48.05;24.10;;;;;;;9.30;49.31;97548.56;4992030;28;20030;-66
2022/03/26 07:40:24;;;;;;;54.20;25.83;;;;;;;9.25;49.70;97548.75;4991924;28;20047;-68
2022/03/26 07:42:50;;;;;;;55.72;25.60;;;;;;;9.65;48.75;97542.69;4996463;28;20057;-68
2022/03/26 07:45:15;;;;;;;55.97;24.80;;;;;;;9.51;49.00;97552.03;5011655;28;20077;-65
2022/03/26 07:47:40;;;;;;;51.65;23.77;;;;;;;9.47;49.09;97553.84;5009720;28;20034;-67
2022/03/26 07:50:07;;;;;;;47.42;22.45;;;;;;;9.99;48.51;97543.41;4999442;28;20039;-68
2022/03/26 07:52:34;;;;;;;47.45;23.50;;;;;;;10.59;46.80;97554.66;4991328;28;20038;-66
2022/03/26 07:54:59;;;;;;;52.88;23.77;;;;;;;11.62;44.90;97547.75;4983326;28;20034;-66
2022/03/26 07:57:26;;;;;;;56.05;26.52;;;;;;;10.58;45.72;97553.88;4986751;28;20054;-66
2022/03/26 07:59:52;;;;;;;50.75;26.60;;;;;;;10.36;47.21;97557.91;4984158;28;20030;-66
2022/03/26 08:02:17;;;;;;;49.80;25.60;;;;;;;10.77;47.94;97555.19;4987279;28;20038;-67
2022/03/26 08:04:45;;;;;;;48.72;24.10;;;;;;;10.55;47.66;97562.00;4986564;28;20042;-65
2022/03/26 08:07:11;;;;;;;52.97;26.75;;;;;;;11.00;46.19;97553.53;4983747;28;20031;-67
2022/03/26 08:09:37;;;;;;;52.85;24.98;;;;;;;10.41;46.99;97562.38;4981213;28;20030;-67
2022/03/26 08:12:03;;;;;;;49.97;25.75;;;;;;;10.43;48.24;97568.31;4982668;28;20403;-67
2022/03/26 08:14:30;;;;;;;49.13;25.25;;;;;;;10.63;47.36;97547.38;4981793;28;20034;-67
2022/03/26 08:16:56;;;;;;;56.90;24.33;;;;;;;10.90;46.89;97549.34;4984246;28;20073;-66
2022/03/26 08:19:21;;;;;;;48.95;23.40;;;;;;;11.40;45.60;97552.69;4983925;28;20033;-65
2022/03/26 08:21:47;;;;;;;45.90;23.02;;;;;;;11.84;45.14;97554.56;4982573;28;20027;-66
2022/03/26 08:24:13;;;;;;;51.78;23.83;;;;;;;11.83;44.86;97562.00;4982523;28;20042;-66
2022/03/26 08:26:39;;;;;;;44.20;23.10;;;;;;;11.60;44.96;97553.59;4986751;28;20117;-66
2022/03/26 08:29:07;;;;;;;46.97;22.30;;;;;;;11.38;45.42;97552.22;5003055;28;20038;-70
2022/03/26 08:31:33;;;;;;;48.72;22.42;;;;;;;11.79;45.07;97566.63;5019271;28;20068;-67
2022/03/26 08:33:59;;;;;;;50.00;24.10;;;;;;;11.97;45.02;97567.06;4986232;28;20464;-66
2022/03/26 08:36:26;;;;;;;49.42;22.73;;;;;;;11.56;45.55;97552.69;4980129;28;20422;-67
2022/03/26 08:38:51;;;;;;;49.15;22.30;;;;;;;11.37;45.92;97564.34;4983038;28;20027;-66
2022/03/26 08:41:22;;;;;;;47.00;23.20;;;;;;;11.68;45.46;97568.28;4980639;28;20045;-68
2022/03/26 08:43:50;;;;;;;51.17;23.70;;;;;;;11.75;45.50;97568.47;4982980;28;20034;-66
2022/03/26 08:46:16;;;;;;;47.15;21.63;;;;;;;11.69;45.05;97556.16;4971889;28;20068;-67
2022/03/26 08:48:41;;;;;;;44.42;22.63;;;;;;;11.67;45.27;97563.97;4972005;28;20039;-69
2022/03/26 08:51:07;;;;;;;51.47;23.27;;;;;;;11.68;45.97;97562.78;4918635;28;1297738;-69
2022/03/26 08:53:33;;;;;;;44.63;23.05;;;;;;;11.86;44.78;97557.75;4971082;28;20069;-69
2022/03/26 08:55:59;;;;;;;43.80;22.15;;;;;;;12.45;43.71;97558.78;4969979;28;20035;-68
2022/03/26 08:58:25;;;;;;;43.72;21.63;;;;;;;12.76;44.87;97570.84;4968127;28;20596;-69
2022/03/26 09:00:51;;;;;;;41.20;21.50;;;;;;;13.55;42.19;97562.25;4975537;28;20038;-69
2022/03/26 09:03:21;;;;;;;49.28;23.10;;;;;;;12.76;43.89;97555.16;4971875;28;20391;-69
2022/03/26 09:05:50;;;;;;;;;;;;;;;13.82;41.77;97554.06;4975539;28;20060;-73
2022/03/26 09:08:16;;;;;;;43.05;20.42;;;;;;;13.77;40.63;97565.38;4979446;28;19902;-71
2022/03/26 09:10:41;;;;;;;39.67;20.75;;;;;;;15.07;39.03;97557.09;4982148;28;20471;-70
2022/03/26 09:13:07;;;;;;;37.70;20.33;;;;;;;14.76;39.88;97561.03;4970679;28;20126;-71
2022/03/26 09:15:33;;;;;;;40.70;21.77;;;;;;;12.98;42.22;97564.66;4975717;28;20038;-72
2022/03/26 09:17:59;;;;;;;46.65;20.67;;;;;;;13.24;43.31;97560.47;4975975;28;20419;-71
2022/03/26 09:20:26;;;;;;;40.85;21.40;;;;;;;13.11;43.00;97554.31;4972003;28;20113;-70
2022/03/26 09:22:52;;;;;;;46.38;21.30;;;;;;;13.42;41.36;97555.31;4980421;28;20133;-70
2022/03/26 09:25:18;;;;;;;41.00;20.58;;;;;;;13.77;41.17;97552.44;4973708;28;20128;-72
2022/03/26 09:27:44;;;;;;;44.25;20.88;;;;;;;13.81;41.50;97557.19;4974109;28;20038;-72
2022/03/26 09:30:10;;;;;;;45.63;22.45;;;;;;;13.19;41.82;97555.25;4969704;28;20112;-70
2022/03/26 09:32:36;;;;;;;44.50;21.33;;;;;;;13.09;42.43;97551.13;4974748;28;20037;-70
2022/03/26 09:35:01;;;;;;;40.78;21.92;;;;;;;12.99;42.66;97552.50;4976243;28;20039;-70
2022/03/26 09:37:27;;;;;;;42.10;20.88;;;;;;;13.10;42.57;97552.72;4973092;28;20145;-70
2022/03/26 09:39:54;;;;;;;44.92;20.45;;;;;;;13.58;42.78;97552.47;4976177;28;20803;-70
2022/03/26 09:42:22;;;;;;;39.08;20.63;;;;;;;14.44;40.67;97547.56;4974069;28;20403;-73
2022/03/26 09:44:49;;;;;;;43.28;20.63;;;;;;;14.27;40.54;97548.91;4980258;28;20038;-71
2022/03/26 09:47:14;;;;;;;45.75;22.80;;;;;;;14.19;40.60;97541.66;4973302;28;20051;-72
2022/03/26 09:49:40;;;;;;;44.95;22.13;;;;;;;14.54;40.72;97536.69;4973303;28;20126;-72
2022/03/26 09:52:06;;;;;;;38.97;21.20;;;;;;;14.14;41.24;97543.59;4971442;28;20062;-72
2022/03/26 09:54:33;;;;;;;41.13;21.83;;;;;;;14.23;40.82;97534.28;4976593;28;20030;-71
2022/03/26 09:56:59;;;;;;;39.78;21.58;;;;;;;14.46;39.58;97548.81;4976013;28;20043;-71
2022/03/26 09:59:25;;;;;;;45.20;21.80;;;;;;;14.20;40.54;97533.03;4966513;28;20047;-70
2022/03/26 10:01:51;;;;;;;45.47;21.33;;;;;;;14.87;40.31;97537.97;4976663;28;20372;-71
2022/03/26 10:04:18;;;;;;;45.35;22.25;;;;;;;14.94;39.70;97541.97;4972135;28;20121;-73
2022/03/26 10:06:57;;;;;;;44.05;22.40;;;;;;;14.38;40.69;97532.53;4973500;28;20130;-71
2022/03/26 10:09:26;;;;;;;42.22;21.77;;;;;;;15.13;38.21;97528.03;4965473;28;20378;-71
2022/03/26 10:12:01;;;;;;;42.80;22.83;;;;;;;14.69;39.94;97526.72;4973377;28;20042;-71
2022/03/26 10:14:47;;;;;;;49.70;22.35;;;;;;;15.52;38.74;97532.38;4967914;28;20039;-71
2022/03/26 10:17:15;;;;;;;46.80;22.17;;;;;;;15.36;39.46;97527.88;4971662;28;20077;-71
2022/03/26 10:19:41;;;;;;;42.83;22.40;;;;;;;14.98;39.56;97527.06;4978707;28;20050;-71
2022/03/26 10:22:20;;;;;;;45.05;21.75;;;;;;;15.20;38.03;97517.06;4971230;28;20039;-72
2022/03/26 10:24:46;;;;;;;50.90;22.67;;;;;;;15.55;38.34;97518.59;4979317;28;20093;-72
2022/03/26 10:27:16;;;;;;;55.58;22.05;;;;;;;15.54;38.99;97518.97;4972498;28;20066;-73
2022/03/26 10:29:51;;;;;;;45.50;23.40;;;;;;;15.41;37.54;97515.69;4999969;28;20130;-72
2022/03/26 10:32:39;;;;;;;47.53;22.13;;;;;;;15.21;38.29;97513.13;4995474;28;20102;-71
2022/03/26 10:35:26;;;;;;;48.00;23.38;;;;;;;15.87;37.11;97518.16;4988144;28;20049;-74
2022/03/26 10:37:58;;;;;;;50.10;23.60;;;;;;;15.87;37.32;97520.91;4981545;28;20039;-72
2022/03/26 10:40:29;;;;;;;45.03;23.73;;;;;;;15.67;37.53;97498.22;4969636;28;20137;-72
2022/03/26 10:42:59;;;;;;;41.85;20.92;;;;;;;15.96;37.29;97504.00;4973789;28;20089;-70
2022/03/26 10:45:24;;;;;;;;;;;;;;;16.13;36.24;97508.88;4974752;28;20790;-71
2022/03/26 10:47:54;;;;;;;41.72;21.70;;;;;;;16.06;37.20;97506.03;4977372;28;20004;-71
2022/03/26 10:50:19;;;;;;;47.42;21.25;;;;;;;16.47;36.80;97502.38;4968808;28;20134;-72
2022/03/26 10:52:45;;;;;;;41.70;22.20;;;;;;;16.02;36.51;97510.75;5010582;23;20141;-66
2022/03/26 10:55:18;;;;;;;49.42;24.75;;;;;;;15.90;36.92;97500.00;4993870;28;20043;-67
2022/03/26 10:57:48;;;;;;;45.55;21.52;;;;;;;16.40;36.91;97490.13;4971078;28;20042;-68
2022/03/26 11:00:15;;;;;;;47.45;24.02;;;;;;;16.56;35.96;97494.53;4989648;28;20455;-70
2022/03/26 11:02:42;;;;;;;50.40;24.42;;;;;;;16.25;36.81;97485.66;4996906;28;20136;-68
2022/03/26 11:05:08;;;;;;;51.13;23.55;;;;;;;16.22;37.00;97487.25;4995465;28;20050;-68
2022/03/26 11:07:37;;;;;;;47.47;24.75;;;;;;;17.24;37.20;97491.28;4994663;28;20136;-70
2022/03/26 11:10:07;;;;;;;41.15;23.05;;;;;;;18.26;37.51;97491.78;4987837;28;20102;-71
2022/03/26 11:12:33;;;;;;;47.03;22.75;;;;;;;17.45;34.01;97484.97;5006092;28;20042;-68
2022/03/26 11:15:03;;;;;;;46.30;24.92;;;;;;;17.24;38.07;97492.06;4996112;28;20750;-69
2022/03/26 11:17:49;;;;;;;47.45;25.05;;;;;;;17.57;37.84;97484.59;4988790;28;20076;-69
2022/03/26 11:20:44;;;;;;;44.42;24.17;;;;;;;18.39;36.54;97474.72;4988183;28;20060;-68
2022/03/26 11:23:15;;;;;;;48.63;24.55;;;;;;;18.04;36.39;97479.09;4985706;28;20046;-67